sensor_id;sensor_type;location;lat;lon;timestamp;P1;durP1;ratioP1;P2;durP2;ratioP2
19084;SDS011;9675;51.538;6.728;2023-04-15T00:00:16;7.47;;;2.10;;
19084;SDS011;9675;51.538;6.728;2023-04-15T00:02:46;2.40;;;1.27;;
19084;SDS011;9675;51.538;6.728;2023-04-15T00:05:13;6.57;;;2.30;;
19084;SDS011;9675;51.538;6.728;2023-04-15T00:07:41;4.60;;;1.80;;
19084;SDS011;9675;51.538;6.728;2023-04-15T00:10:09;4.03;;;1.90;;
19084;SDS011;9675;51.538;6.728;2023-04-15T00:12:36;2.33;;;1.50;;
19084;SDS011;9675;51.538;6.728;2023-04-15T00:15:04;3.23;;;2.23;;
19084;SDS011;9675;51.538;6.728;2023-04-15T00:17:32;2.47;;;1.07;;
19084;SDS011;9675;51.538;6.728;2023-04-15T00:20:01;2.20;;;1.63;;
19084;SDS011;9675;51.538;6.728;2023-04-15T00:22:30;3.20;;;1.47;;
19084;SDS011;9675;51.538;6.728;2023-04-15T00:24:57;6.07;;;2.23;;
19084;SDS011;9675;51.538;6.728;2023-04-15T00:27:25;3.30;;;1.70;;
19084;SDS011;9675;51.538;6.728;2023-04-15T00:29:52;4.63;;;2.07;;
19084;SDS011;9675;51.538;6.728;2023-04-15T00:32:19;4.30;;;1.87;;
19084;SDS011;9675;51.538;6.728;2023-04-15T00:34:46;5.50;;;2.10;;
19084;SDS011;9675;51.538;6.728;2023-04-15T00:37:15;3.27;;;2.40;;
19084;SDS011;9675;51.538;6.728;2023-04-15T00:39:42;2.63;;;1.70;;
19084;SDS011;9675;51.538;6.728;2023-04-15T00:42:09;3.00;;;1.83;;
19084;SDS011;9675;51.538;6.728;2023-04-15T00:44:36;4.73;;;1.77;;
19084;SDS011;9675;51.538;6.728;2023-04-15T00:47:03;2.47;;;1.77;;
19084;SDS011;9675;51.538;6.728;2023-04-15T00:49:31;1.93;;;1.40;;
19084;SDS011;9675;51.538;6.728;2023-04-15T00:51:58;3.63;;;1.53;;
19084;SDS011;9675;51.538;6.728;2023-04-15T00:54:27;6.50;;;2.00;;
19084;SDS011;9675;51.538;6.728;2023-04-15T00:56:54;2.40;;;1.67;;
19084;SDS011;9675;51.538;6.728;2023-04-15T00:59:22;2.97;;;2.03;;
19084;SDS011;9675;51.538;6.728;2023-04-15T01:01:49;4.57;;;1.93;;
19084;SDS011;9675;51.538;6.728;2023-04-15T01:04:16;3.03;;;1.70;;
19084;SDS011;9675;51.538;6.728;2023-04-15T01:06:44;4.03;;;2.17;;
19084;SDS011;9675;51.538;6.728;2023-04-15T01:09:11;3.13;;;1.83;;
19084;SDS011;9675;51.538;6.728;2023-04-15T01:11:39;2.30;;;1.33;;
19084;SDS011;9675;51.538;6.728;2023-04-15T01:14:07;3.77;;;1.67;;
19084;SDS011;9675;51.538;6.728;2023-04-15T01:16:35;8.33;;;1.80;;
19084;SDS011;9675;51.538;6.728;2023-04-15T01:19:04;2.30;;;1.47;;
19084;SDS011;9675;51.538;6.728;2023-04-15T01:21:35;4.13;;;2.30;;
19084;SDS011;9675;51.538;6.728;2023-04-15T01:24:04;5.20;;;2.17;;
19084;SDS011;9675;51.538;6.728;2023-04-15T01:26:37;4.33;;;1.93;;
19084;SDS011;9675;51.538;6.728;2023-04-15T01:29:05;3.60;;;1.67;;
19084;SDS011;9675;51.538;6.728;2023-04-15T01:31:32;4.17;;;2.03;;
19084;SDS011;9675;51.538;6.728;2023-04-15T01:34:00;2.33;;;1.60;;
19084;SDS011;9675;51.538;6.728;2023-04-15T01:36:27;2.37;;;1.23;;
19084;SDS011;9675;51.538;6.728;2023-04-15T01:38:55;2.73;;;2.20;;
19084;SDS011;9675;51.538;6.728;2023-04-15T01:41:24;2.67;;;1.50;;
19084;SDS011;9675;51.538;6.728;2023-04-15T01:43:53;2.27;;;1.50;;
19084;SDS011;9675;51.538;6.728;2023-04-15T01:46:21;2.40;;;1.43;;
19084;SDS011;9675;51.538;6.728;2023-04-15T01:48:48;5.97;;;1.80;;
19084;SDS011;9675;51.538;6.728;2023-04-15T01:51:15;4.63;;;2.13;;
19084;SDS011;9675;51.538;6.728;2023-04-15T01:53:42;3.70;;;2.20;;
19084;SDS011;9675;51.538;6.728;2023-04-15T01:56:09;3.77;;;1.60;;
19084;SDS011;9675;51.538;6.728;2023-04-15T01:58:36;5.37;;;1.70;;
19084;SDS011;9675;51.538;6.728;2023-04-15T02:01:05;2.47;;;1.63;;
19084;SDS011;9675;51.538;6.728;2023-04-15T02:03:34;3.27;;;1.90;;
19084;SDS011;9675;51.538;6.728;2023-04-15T02:06:02;2.20;;;1.57;;
19084;SDS011;9675;51.538;6.728;2023-04-15T02:08:30;2.97;;;1.67;;
19084;SDS011;9675;51.538;6.728;2023-04-15T02:10:58;4.83;;;1.60;;
19084;SDS011;9675;51.538;6.728;2023-04-15T02:13:26;3.03;;;1.30;;
19084;SDS011;9675;51.538;6.728;2023-04-15T02:15:53;3.33;;;1.97;;
19084;SDS011;9675;51.538;6.728;2023-04-15T02:18:22;6.10;;;1.70;;
19084;SDS011;9675;51.538;6.728;2023-04-15T02:20:50;1.87;;;1.37;;
19084;SDS011;9675;51.538;6.728;2023-04-15T02:23:17;1.67;;;1.30;;
19084;SDS011;9675;51.538;6.728;2023-04-15T02:25:51;2.80;;;1.80;;
19084;SDS011;9675;51.538;6.728;2023-04-15T02:28:19;2.57;;;1.87;;
19084;SDS011;9675;51.538;6.728;2023-04-15T02:30:47;2.77;;;1.67;;
19084;SDS011;9675;51.538;6.728;2023-04-15T02:33:16;2.60;;;1.57;;
19084;SDS011;9675;51.538;6.728;2023-04-15T02:35:44;5.23;;;1.77;;
19084;SDS011;9675;51.538;6.728;2023-04-15T02:38:11;3.07;;;1.50;;
19084;SDS011;9675;51.538;6.728;2023-04-15T02:40:40;4.60;;;1.50;;
19084;SDS011;9675;51.538;6.728;2023-04-15T02:43:07;4.07;;;1.90;;
19084;SDS011;9675;51.538;6.728;2023-04-15T02:45:34;3.43;;;1.60;;
19084;SDS011;9675;51.538;6.728;2023-04-15T02:48:01;7.13;;;1.80;;
19084;SDS011;9675;51.538;6.728;2023-04-15T02:50:30;2.50;;;1.60;;
19084;SDS011;9675;51.538;6.728;2023-04-15T02:52:58;7.87;;;1.90;;
19084;SDS011;9675;51.538;6.728;2023-04-15T02:55:26;2.70;;;1.47;;
19084;SDS011;9675;51.538;6.728;2023-04-15T02:57:53;2.93;;;1.90;;
19084;SDS011;9675;51.538;6.728;2023-04-15T03:00:22;3.20;;;1.90;;
19084;SDS011;9675;51.538;6.728;2023-04-15T03:02:56;3.67;;;2.10;;
19084;SDS011;9675;51.538;6.728;2023-04-15T03:05:24;3.73;;;1.80;;
19084;SDS011;9675;51.538;6.728;2023-04-15T03:07:52;5.23;;;1.67;;
19084;SDS011;9675;51.538;6.728;2023-04-15T03:10:20;3.83;;;1.83;;
19084;SDS011;9675;51.538;6.728;2023-04-15T03:12:48;2.00;;;1.60;;
19084;SDS011;9675;51.538;6.728;2023-04-15T03:15:15;4.23;;;2.13;;
19084;SDS011;9675;51.538;6.728;2023-04-15T03:17:42;3.77;;;2.20;;
19084;SDS011;9675;51.538;6.728;2023-04-15T03:20:09;3.00;;;1.60;;
19084;SDS011;9675;51.538;6.728;2023-04-15T03:22:36;4.03;;;1.70;;
19084;SDS011;9675;51.538;6.728;2023-04-15T03:25:03;4.00;;;2.03;;
19084;SDS011;9675;51.538;6.728;2023-04-15T03:27:33;2.83;;;1.80;;
19084;SDS011;9675;51.538;6.728;2023-04-15T03:30:00;1.83;;;1.53;;
19084;SDS011;9675;51.538;6.728;2023-04-15T03:32:27;4.47;;;2.13;;
19084;SDS011;9675;51.538;6.728;2023-04-15T03:34:54;4.23;;;1.93;;
19084;SDS011;9675;51.538;6.728;2023-04-15T03:37:21;5.90;;;1.87;;
19084;SDS011;9675;51.538;6.728;2023-04-15T03:39:48;4.23;;;1.40;;
19084;SDS011;9675;51.538;6.728;2023-04-15T03:42:15;4.53;;;1.97;;
19084;SDS011;9675;51.538;6.728;2023-04-15T03:44:43;3.97;;;1.90;;
19084;SDS011;9675;51.538;6.728;2023-04-15T03:47:10;3.70;;;2.10;;
19084;SDS011;9675;51.538;6.728;2023-04-15T03:49:37;4.83;;;1.90;;
19084;SDS011;9675;51.538;6.728;2023-04-15T03:52:04;2.50;;;1.53;;
19084;SDS011;9675;51.538;6.728;2023-04-15T03:54:31;3.20;;;1.57;;
19084;SDS011;9675;51.538;6.728;2023-04-15T03:56:58;4.33;;;1.90;;
19084;SDS011;9675;51.538;6.728;2023-04-15T03:59:25;3.40;;;1.93;;
19084;SDS011;9675;51.538;6.728;2023-04-15T04:01:54;2.60;;;1.67;;
19084;SDS011;9675;51.538;6.728;2023-04-15T04:04:21;4.00;;;1.77;;
19084;SDS011;9675;51.538;6.728;2023-04-15T04:06:48;2.90;;;1.97;;
19084;SDS011;9675;51.538;6.728;2023-04-15T04:09:15;3.10;;;1.87;;
19084;SDS011;9675;51.538;6.728;2023-04-15T04:11:42;3.27;;;1.47;;
19084;SDS011;9675;51.538;6.728;2023-04-15T04:14:09;6.13;;;2.13;;
19084;SDS011;9675;51.538;6.728;2023-04-15T04:16:36;4.10;;;2.07;;
19084;SDS011;9675;51.538;6.728;2023-04-15T04:19:04;2.20;;;1.40;;
19084;SDS011;9675;51.538;6.728;2023-04-15T04:21:31;3.93;;;2.40;;
19084;SDS011;9675;51.538;6.728;2023-04-15T04:23:59;4.40;;;2.13;;
19084;SDS011;9675;51.538;6.728;2023-04-15T04:26:26;4.37;;;2.00;;
19084;SDS011;9675;51.538;6.728;2023-04-15T04:28:53;4.67;;;2.50;;
19084;SDS011;9675;51.538;6.728;2023-04-15T04:31:20;2.27;;;1.23;;
19084;SDS011;9675;51.538;6.728;2023-04-15T04:33:47;4.57;;;2.80;;
19084;SDS011;9675;51.538;6.728;2023-04-15T04:36:15;4.33;;;2.70;;
19084;SDS011;9675;51.538;6.728;2023-04-15T04:38:42;2.97;;;1.77;;
19084;SDS011;9675;51.538;6.728;2023-04-15T04:41:10;3.83;;;2.10;;
19084;SDS011;9675;51.538;6.728;2023-04-15T04:43:37;6.90;;;2.33;;
19084;SDS011;9675;51.538;6.728;2023-04-15T04:46:04;5.87;;;2.27;;
19084;SDS011;9675;51.538;6.728;2023-04-15T04:48:31;3.60;;;2.10;;
19084;SDS011;9675;51.538;6.728;2023-04-15T04:50:58;4.07;;;1.93;;
19084;SDS011;9675;51.538;6.728;2023-04-15T04:53:26;4.03;;;2.30;;
19084;SDS011;9675;51.538;6.728;2023-04-15T04:55:53;2.80;;;1.77;;
19084;SDS011;9675;51.538;6.728;2023-04-15T04:58:21;3.17;;;1.90;;
19084;SDS011;9675;51.538;6.728;2023-04-15T05:00:48;4.00;;;1.57;;
19084;SDS011;9675;51.538;6.728;2023-04-15T05:03:15;3.97;;;2.03;;
19084;SDS011;9675;51.538;6.728;2023-04-15T05:05:42;2.03;;;1.57;;
19084;SDS011;9675;51.538;6.728;2023-04-15T05:08:09;4.73;;;2.17;;
19084;SDS011;9675;51.538;6.728;2023-04-15T05:10:37;5.77;;;2.43;;
19084;SDS011;9675;51.538;6.728;2023-04-15T05:13:04;4.73;;;1.90;;
19084;SDS011;9675;51.538;6.728;2023-04-15T05:15:31;9.40;;;2.07;;
19084;SDS011;9675;51.538;6.728;2023-04-15T05:18:00;3.23;;;2.07;;
19084;SDS011;9675;51.538;6.728;2023-04-15T05:20:28;3.73;;;2.07;;
19084;SDS011;9675;51.538;6.728;2023-04-15T05:22:55;4.13;;;2.13;;
19084;SDS011;9675;51.538;6.728;2023-04-15T05:25:22;5.30;;;2.13;;
19084;SDS011;9675;51.538;6.728;2023-04-15T05:27:50;4.30;;;2.13;;
19084;SDS011;9675;51.538;6.728;2023-04-15T05:30:17;3.20;;;1.83;;
19084;SDS011;9675;51.538;6.728;2023-04-15T05:32:44;3.03;;;1.33;;
19084;SDS011;9675;51.538;6.728;2023-04-15T05:35:11;3.40;;;2.03;;
19084;SDS011;9675;51.538;6.728;2023-04-15T05:37:38;7.00;;;2.50;;
19084;SDS011;9675;51.538;6.728;2023-04-15T05:40:05;4.10;;;2.37;;
19084;SDS011;9675;51.538;6.728;2023-04-15T05:42:34;5.17;;;2.47;;
19084;SDS011;9675;51.538;6.728;2023-04-15T05:45:03;4.87;;;2.37;;
19084;SDS011;9675;51.538;6.728;2023-04-15T05:47:33;5.50;;;2.83;;
19084;SDS011;9675;51.538;6.728;2023-04-15T05:50:01;5.10;;;2.23;;
19084;SDS011;9675;51.538;6.728;2023-04-15T05:52:28;4.00;;;2.30;;
19084;SDS011;9675;51.538;6.728;2023-04-15T05:54:55;7.77;;;2.73;;
19084;SDS011;9675;51.538;6.728;2023-04-15T05:57:22;5.67;;;2.77;;
19084;SDS011;9675;51.538;6.728;2023-04-15T05:59:49;5.30;;;2.70;;
19084;SDS011;9675;51.538;6.728;2023-04-15T06:02:18;8.13;;;2.83;;
19084;SDS011;9675;51.538;6.728;2023-04-15T06:04:45;6.40;;;2.73;;
19084;SDS011;9675;51.538;6.728;2023-04-15T06:07:12;5.20;;;2.80;;
19084;SDS011;9675;51.538;6.728;2023-04-15T06:09:39;5.30;;;2.70;;
19084;SDS011;9675;51.538;6.728;2023-04-15T06:12:06;8.40;;;3.57;;
19084;SDS011;9675;51.538;6.728;2023-04-15T06:14:36;7.70;;;3.00;;
19084;SDS011;9675;51.538;6.728;2023-04-15T06:17:03;4.57;;;2.73;;
19084;SDS011;9675;51.538;6.728;2023-04-15T06:19:31;6.77;;;3.00;;
19084;SDS011;9675;51.538;6.728;2023-04-15T06:21:58;6.90;;;3.33;;
19084;SDS011;9675;51.538;6.728;2023-04-15T06:24:25;4.40;;;2.80;;
19084;SDS011;9675;51.538;6.728;2023-04-15T06:26:53;4.23;;;2.93;;
19084;SDS011;9675;51.538;6.728;2023-04-15T06:29:20;7.00;;;2.77;;
19084;SDS011;9675;51.538;6.728;2023-04-15T06:31:47;5.43;;;2.57;;
19084;SDS011;9675;51.538;6.728;2023-04-15T06:34:14;4.87;;;2.80;;
19084;SDS011;9675;51.538;6.728;2023-04-15T06:36:42;6.47;;;3.53;;
19084;SDS011;9675;51.538;6.728;2023-04-15T06:39:09;5.37;;;2.70;;
19084;SDS011;9675;51.538;6.728;2023-04-15T06:41:42;4.50;;;2.83;;
19084;SDS011;9675;51.538;6.728;2023-04-15T06:44:09;8.03;;;2.70;;
19084;SDS011;9675;51.538;6.728;2023-04-15T06:46:36;4.73;;;2.20;;
19084;SDS011;9675;51.538;6.728;2023-04-15T06:49:03;4.73;;;2.60;;
19084;SDS011;9675;51.538;6.728;2023-04-15T06:51:30;7.57;;;3.53;;
19084;SDS011;9675;51.538;6.728;2023-04-15T06:53:59;7.93;;;2.23;;
19084;SDS011;9675;51.538;6.728;2023-04-15T06:56:26;5.67;;;2.37;;
19084;SDS011;9675;51.538;6.728;2023-04-15T06:58:53;6.73;;;3.47;;
19084;SDS011;9675;51.538;6.728;2023-04-15T07:01:21;2.90;;;1.33;;
19084;SDS011;9675;51.538;6.728;2023-04-15T07:03:48;2.17;;;1.40;;
19084;SDS011;9675;51.538;6.728;2023-04-15T07:06:15;4.97;;;2.97;;
19084;SDS011;9675;51.538;6.728;2023-04-15T07:08:42;3.13;;;1.33;;
19084;SDS011;9675;51.538;6.728;2023-04-15T07:11:11;5.40;;;2.87;;
19084;SDS011;9675;51.538;6.728;2023-04-15T07:13:38;6.37;;;3.23;;
19084;SDS011;9675;51.538;6.728;2023-04-15T07:16:05;5.67;;;3.40;;
19084;SDS011;9675;51.538;6.728;2023-04-15T07:18:33;2.23;;;1.00;;
19084;SDS011;9675;51.538;6.728;2023-04-15T07:21:00;3.43;;;1.90;;
19084;SDS011;9675;51.538;6.728;2023-04-15T07:23:27;1.13;;;0.97;;
19084;SDS011;9675;51.538;6.728;2023-04-15T07:25:54;1.30;;;0.67;;
19084;SDS011;9675;51.538;6.728;2023-04-15T07:28:23;6.33;;;1.83;;
19084;SDS011;9675;51.538;6.728;2023-04-15T07:30:50;3.93;;;1.77;;
19084;SDS011;9675;51.538;6.728;2023-04-15T07:33:17;4.23;;;1.80;;
19084;SDS011;9675;51.538;6.728;2023-04-15T07:35:44;1.13;;;0.47;;
19084;SDS011;9675;51.538;6.728;2023-04-15T07:38:11;2.73;;;0.87;;
19084;SDS011;9675;51.538;6.728;2023-04-15T07:40:38;1.77;;;1.20;;
19084;SDS011;9675;51.538;6.728;2023-04-15T07:43:06;0.30;;;0.30;;
19084;SDS011;9675;51.538;6.728;2023-04-15T07:45:35;2.10;;;1.13;;
19084;SDS011;9675;51.538;6.728;2023-04-15T07:48:02;1.03;;;0.70;;
19084;SDS011;9675;51.538;6.728;2023-04-15T07:50:30;3.97;;;1.80;;
19084;SDS011;9675;51.538;6.728;2023-04-15T07:52:57;0.80;;;0.67;;
19084;SDS011;9675;51.538;6.728;2023-04-15T07:55:24;2.50;;;1.27;;
19084;SDS011;9675;51.538;6.728;2023-04-15T07:57:51;2.73;;;1.23;;
19084;SDS011;9675;51.538;6.728;2023-04-15T08:00:19;0.23;;;0.00;;
19084;SDS011;9675;51.538;6.728;2023-04-15T08:02:47;3.97;;;1.37;;
19084;SDS011;9675;51.538;6.728;2023-04-15T08:05:17;2.97;;;1.57;;
19084;SDS011;9675;51.538;6.728;2023-04-15T08:07:44;1.23;;;0.47;;
19084;SDS011;9675;51.538;6.728;2023-04-15T08:10:11;1.07;;;0.80;;
19084;SDS011;9675;51.538;6.728;2023-04-15T08:12:40;1.77;;;0.83;;
19084;SDS011;9675;51.538;6.728;2023-04-15T08:15:07;1.47;;;0.97;;
19084;SDS011;9675;51.538;6.728;2023-04-15T08:17:35;1.27;;;0.40;;
19084;SDS011;9675;51.538;6.728;2023-04-15T08:20:04;1.77;;;1.13;;
19084;SDS011;9675;51.538;6.728;2023-04-15T08:22:32;0.50;;;0.20;;
19084;SDS011;9675;51.538;6.728;2023-04-15T08:25:00;2.00;;;1.07;;
19084;SDS011;9675;51.538;6.728;2023-04-15T08:27:27;0.57;;;0.47;;
19084;SDS011;9675;51.538;6.728;2023-04-15T08:29:54;1.17;;;0.40;;
19084;SDS011;9675;51.538;6.728;2023-04-15T08:32:21;0.77;;;0.77;;
19084;SDS011;9675;51.538;6.728;2023-04-15T08:34:50;0.00;;;0.00;;
19084;SDS011;9675;51.538;6.728;2023-04-15T08:37:18;0.17;;;0.17;;
19084;SDS011;9675;51.538;6.728;2023-04-15T08:39:46;0.87;;;0.40;;
19084;SDS011;9675;51.538;6.728;2023-04-15T08:42:15;2.00;;;1.17;;
19084;SDS011;9675;51.538;6.728;2023-04-15T08:44:44;3.47;;;1.93;;
19084;SDS011;9675;51.538;6.728;2023-04-15T08:47:13;3.33;;;1.37;;
19084;SDS011;9675;51.538;6.728;2023-04-15T08:49:45;3.93;;;1.70;;
19084;SDS011;9675;51.538;6.728;2023-04-15T08:52:19;0.53;;;0.47;;
19084;SDS011;9675;51.538;6.728;2023-04-15T08:54:46;3.00;;;1.40;;
19084;SDS011;9675;51.538;6.728;2023-04-15T08:57:14;1.07;;;0.40;;
19084;SDS011;9675;51.538;6.728;2023-04-15T08:59:41;1.20;;;0.63;;
19084;SDS011;9675;51.538;6.728;2023-04-15T09:02:10;0.43;;;0.40;;
19084;SDS011;9675;51.538;6.728;2023-04-15T09:04:37;1.80;;;0.33;;
19084;SDS011;9675;51.538;6.728;2023-04-15T09:07:04;1.70;;;0.80;;
19084;SDS011;9675;51.538;6.728;2023-04-15T09:09:33;0.77;;;0.40;;
19084;SDS011;9675;51.538;6.728;2023-04-15T09:12:01;0.87;;;0.47;;
19084;SDS011;9675;51.538;6.728;2023-04-15T09:14:28;0.60;;;0.40;;
19084;SDS011;9675;51.538;6.728;2023-04-15T09:16:56;1.53;;;1.07;;
19084;SDS011;9675;51.538;6.728;2023-04-15T09:19:26;0.80;;;0.53;;
19084;SDS011;9675;51.538;6.728;2023-04-15T09:21:55;1.90;;;0.87;;
19084;SDS011;9675;51.538;6.728;2023-04-15T09:24:24;0.63;;;0.60;;
19084;SDS011;9675;51.538;6.728;2023-04-15T09:27:02;0.40;;;0.40;;
19084;SDS011;9675;51.538;6.728;2023-04-15T09:29:29;0.00;;;0.00;;
19084;SDS011;9675;51.538;6.728;2023-04-15T09:31:57;0.37;;;0.30;;
19084;SDS011;9675;51.538;6.728;2023-04-15T09:34:35;0.23;;;0.23;;
19084;SDS011;9675;51.538;6.728;2023-04-15T09:37:03;1.90;;;1.07;;
19084;SDS011;9675;51.538;6.728;2023-04-15T09:39:45;4.10;;;1.60;;
19084;SDS011;9675;51.538;6.728;2023-04-15T09:42:14;1.37;;;0.67;;
19084;SDS011;9675;51.538;6.728;2023-04-15T09:44:48;2.93;;;1.23;;
19084;SDS011;9675;51.538;6.728;2023-04-15T09:50:01;1.43;;;0.83;;
19084;SDS011;9675;51.538;6.728;2023-04-15T09:52:28;2.63;;;1.20;;
19084;SDS011;9675;51.538;6.728;2023-04-15T09:54:57;0.30;;;0.30;;
19084;SDS011;9675;51.538;6.728;2023-04-15T09:57:31;0.40;;;0.40;;
19084;SDS011;9675;51.538;6.728;2023-04-15T10:00:01;1.07;;;0.63;;
19084;SDS011;9675;51.538;6.728;2023-04-15T10:02:29;2.63;;;1.37;;
19084;SDS011;9675;51.538;6.728;2023-04-15T10:04:57;3.43;;;1.57;;
19084;SDS011;9675;51.538;6.728;2023-04-15T10:07:27;0.57;;;0.57;;
19084;SDS011;9675;51.538;6.728;2023-04-15T10:09:54;0.20;;;0.20;;
19084;SDS011;9675;51.538;6.728;2023-04-15T10:12:26;3.53;;;0.80;;
19084;SDS011;9675;51.538;6.728;2023-04-15T10:14:55;2.33;;;1.37;;
19084;SDS011;9675;51.538;6.728;2023-04-15T10:17:28;2.70;;;1.07;;
19084;SDS011;9675;51.538;6.728;2023-04-15T10:19:59;1.20;;;0.90;;
19084;SDS011;9675;51.538;6.728;2023-04-15T10:22:28;2.27;;;1.27;;
19084;SDS011;9675;51.538;6.728;2023-04-15T10:24:57;1.00;;;0.77;;
19084;SDS011;9675;51.538;6.728;2023-04-15T10:27:27;2.77;;;1.57;;
19084;SDS011;9675;51.538;6.728;2023-04-15T10:29:54;0.00;;;0.00;;
19084;SDS011;9675;51.538;6.728;2023-04-15T10:32:23;2.43;;;1.47;;
19084;SDS011;9675;51.538;6.728;2023-04-15T10:34:52;1.13;;;0.40;;
19084;SDS011;9675;51.538;6.728;2023-04-15T10:37:21;2.73;;;1.73;;
19084;SDS011;9675;51.538;6.728;2023-04-15T10:39:59;0.77;;;0.40;;
19084;SDS011;9675;51.538;6.728;2023-04-15T10:42:32;1.20;;;0.50;;
19084;SDS011;9675;51.538;6.728;2023-04-15T10:45:00;1.40;;;0.67;;
19084;SDS011;9675;51.538;6.728;2023-04-15T10:47:28;0.87;;;0.73;;
19084;SDS011;9675;51.538;6.728;2023-04-15T10:49:57;1.30;;;0.83;;
19084;SDS011;9675;51.538;6.728;2023-04-15T10:52:27;0.67;;;0.50;;
19084;SDS011;9675;51.538;6.728;2023-04-15T10:55:12;0.27;;;0.20;;
19084;SDS011;9675;51.538;6.728;2023-04-15T10:57:45;1.50;;;0.57;;
19084;SDS011;9675;51.538;6.728;2023-04-15T11:00:14;0.00;;;0.00;;
19084;SDS011;9675;51.538;6.728;2023-04-15T11:02:44;6.23;;;1.87;;
19084;SDS011;9675;51.538;6.728;2023-04-15T11:05:13;7.37;;;1.47;;
19084;SDS011;9675;51.538;6.728;2023-04-15T11:07:48;2.17;;;0.93;;
19084;SDS011;9675;51.538;6.728;2023-04-15T11:13:31;0.80;;;0.80;;
19084;SDS011;9675;51.538;6.728;2023-04-15T11:15:59;1.43;;;0.83;;
19084;SDS011;9675;51.538;6.728;2023-04-15T11:18:32;3.57;;;0.97;;
19084;SDS011;9675;51.538;6.728;2023-04-15T11:21:00;1.20;;;0.63;;
19084;SDS011;9675;51.538;6.728;2023-04-15T11:23:34;3.43;;;0.83;;
19084;SDS011;9675;51.538;6.728;2023-04-15T11:26:06;0.40;;;0.33;;
19084;SDS011;9675;51.538;6.728;2023-04-15T11:28:37;6.30;;;0.60;;
19084;SDS011;9675;51.538;6.728;2023-04-15T11:31:06;0.67;;;0.30;;
19084;SDS011;9675;51.538;6.728;2023-04-15T11:33:36;3.50;;;1.40;;
19084;SDS011;9675;51.538;6.728;2023-04-15T11:36:09;2.17;;;0.97;;
19084;SDS011;9675;51.538;6.728;2023-04-15T11:38:36;3.70;;;1.37;;
19084;SDS011;9675;51.538;6.728;2023-04-15T11:41:07;1.67;;;1.03;;
19084;SDS011;9675;51.538;6.728;2023-04-15T11:43:35;1.40;;;0.83;;
19084;SDS011;9675;51.538;6.728;2023-04-15T11:46:03;0.20;;;0.20;;
19084;SDS011;9675;51.538;6.728;2023-04-15T11:48:31;1.30;;;0.87;;
19084;SDS011;9675;51.538;6.728;2023-04-15T11:51:00;0.43;;;0.43;;
19084;SDS011;9675;51.538;6.728;2023-04-15T11:53:35;4.53;;;0.70;;
19084;SDS011;9675;51.538;6.728;2023-04-15T11:56:05;1.37;;;0.60;;
19084;SDS011;9675;51.538;6.728;2023-04-15T11:58:34;0.27;;;0.23;;
19084;SDS011;9675;51.538;6.728;2023-04-15T12:01:04;0.13;;;0.13;;
19084;SDS011;9675;51.538;6.728;2023-04-15T12:03:36;2.20;;;0.33;;
19084;SDS011;9675;51.538;6.728;2023-04-15T12:06:14;0.80;;;0.73;;
19084;SDS011;9675;51.538;6.728;2023-04-15T12:08:47;0.57;;;0.30;;
19084;SDS011;9675;51.538;6.728;2023-04-15T12:11:26;0.07;;;0.07;;
19084;SDS011;9675;51.538;6.728;2023-04-15T12:14:18;1.90;;;1.03;;
19084;SDS011;9675;51.538;6.728;2023-04-15T12:16:50;0.97;;;0.63;;
19084;SDS011;9675;51.538;6.728;2023-04-15T12:19:23;1.53;;;1.00;;
19084;SDS011;9675;51.538;6.728;2023-04-15T12:21:53;0.50;;;0.50;;
19084;SDS011;9675;51.538;6.728;2023-04-15T12:24:24;1.63;;;0.63;;
19084;SDS011;9675;51.538;6.728;2023-04-15T12:26:52;0.93;;;0.70;;
19084;SDS011;9675;51.538;6.728;2023-04-15T12:29:25;0.10;;;0.10;;
19084;SDS011;9675;51.538;6.728;2023-04-15T12:31:54;0.43;;;0.40;;
19084;SDS011;9675;51.538;6.728;2023-04-15T12:34:27;3.07;;;0.90;;
19084;SDS011;9675;51.538;6.728;2023-04-15T12:36:57;1.90;;;0.80;;
19084;SDS011;9675;51.538;6.728;2023-04-15T12:39:27;0.37;;;0.30;;
19084;SDS011;9675;51.538;6.728;2023-04-15T12:41:57;1.87;;;0.50;;
19084;SDS011;9675;51.538;6.728;2023-04-15T12:44:26;0.77;;;0.50;;
19084;SDS011;9675;51.538;6.728;2023-04-15T12:46:54;1.67;;;1.07;;
19084;SDS011;9675;51.538;6.728;2023-04-15T12:49:21;2.77;;;1.20;;
19084;SDS011;9675;51.538;6.728;2023-04-15T12:51:50;1.70;;;0.90;;
19084;SDS011;9675;51.538;6.728;2023-04-15T12:54:19;1.33;;;1.07;;
19084;SDS011;9675;51.538;6.728;2023-04-15T12:56:48;1.30;;;0.90;;
19084;SDS011;9675;51.538;6.728;2023-04-15T12:59:16;2.17;;;1.10;;
19084;SDS011;9675;51.538;6.728;2023-04-15T13:01:45;5.33;;;1.20;;
19084;SDS011;9675;51.538;6.728;2023-04-15T13:04:13;1.87;;;0.67;;
19084;SDS011;9675;51.538;6.728;2023-04-15T13:06:41;1.60;;;0.93;;
19084;SDS011;9675;51.538;6.728;2023-04-15T13:09:08;3.17;;;1.20;;
19084;SDS011;9675;51.538;6.728;2023-04-15T13:11:35;1.27;;;0.83;;
19084;SDS011;9675;51.538;6.728;2023-04-15T13:14:03;1.67;;;1.10;;
19084;SDS011;9675;51.538;6.728;2023-04-15T13:16:32;1.67;;;0.80;;
19084;SDS011;9675;51.538;6.728;2023-04-15T13:19:02;13.93;;;1.53;;
19084;SDS011;9675;51.538;6.728;2023-04-15T13:21:29;1.90;;;0.70;;
19084;SDS011;9675;51.538;6.728;2023-04-15T13:23:59;1.77;;;0.80;;
19084;SDS011;9675;51.538;6.728;2023-04-15T13:26:26;8.23;;;1.20;;
19084;SDS011;9675;51.538;6.728;2023-04-15T13:28:53;5.75;;;1.15;;
19084;SDS011;9675;51.538;6.728;2023-04-15T13:31:20;5.18;;;1.42;;
19084;SDS011;9675;51.538;6.728;2023-04-15T13:33:47;39.70;;;4.33;;
19084;SDS011;9675;51.538;6.728;2023-04-15T13:36:16;57.28;;;4.50;;
19084;SDS011;9675;51.538;6.728;2023-04-15T13:38:43;5.13;;;1.10;;
19084;SDS011;9675;51.538;6.728;2023-04-15T13:41:10;31.30;;;3.50;;
19084;SDS011;9675;51.538;6.728;2023-04-15T13:43:37;7.53;;;1.98;;
19084;SDS011;9675;51.538;6.728;2023-04-15T13:46:04;1.80;;;1.10;;
19084;SDS011;9675;51.538;6.728;2023-04-15T13:48:31;2.37;;;1.30;;
19084;SDS011;9675;51.538;6.728;2023-04-15T13:50:58;1.23;;;1.00;;
19084;SDS011;9675;51.538;6.728;2023-04-15T13:53:27;1.93;;;1.10;;
19084;SDS011;9675;51.538;6.728;2023-04-15T13:55:55;2.97;;;1.40;;
19084;SDS011;9675;51.538;6.728;2023-04-15T13:58:22;10.27;;;1.33;;
19084;SDS011;9675;51.538;6.728;2023-04-15T14:00:49;3.72;;;1.60;;
19084;SDS011;9675;51.538;6.728;2023-04-15T14:03:16;3.30;;;1.30;;
19084;SDS011;9675;51.538;6.728;2023-04-15T14:05:43;9.70;;;1.03;;
19084;SDS011;9675;51.538;6.728;2023-04-15T14:08:10;2.95;;;1.10;;
19084;SDS011;9675;51.538;6.728;2023-04-15T14:10:39;8.48;;;1.60;;
19084;SDS011;9675;51.538;6.728;2023-04-15T14:13:08;23.35;;;2.88;;
19084;SDS011;9675;51.538;6.728;2023-04-15T14:15:35;1.33;;;0.80;;
19084;SDS011;9675;51.538;6.728;2023-04-15T14:18:02;2.37;;;0.67;;
19084;SDS011;9675;51.538;6.728;2023-04-15T14:20:29;1.13;;;0.83;;
19084;SDS011;9675;51.538;6.728;2023-04-15T14:22:56;2.93;;;0.90;;
19084;SDS011;9675;51.538;6.728;2023-04-15T14:25:23;2.07;;;0.87;;
19084;SDS011;9675;51.538;6.728;2023-04-15T14:27:53;1.20;;;0.70;;
19084;SDS011;9675;51.538;6.728;2023-04-15T14:30:20;1.67;;;1.17;;
19084;SDS011;9675;51.538;6.728;2023-04-15T14:32:47;1.53;;;0.87;;
19084;SDS011;9675;51.538;6.728;2023-04-15T14:35:14;0.73;;;0.60;;
19084;SDS011;9675;51.538;6.728;2023-04-15T14:37:41;1.53;;;0.80;;
19084;SDS011;9675;51.538;6.728;2023-04-15T14:40:08;1.83;;;0.80;;
19084;SDS011;9675;51.538;6.728;2023-04-15T14:42:36;1.00;;;0.60;;
19084;SDS011;9675;51.538;6.728;2023-04-15T14:45:05;1.70;;;0.70;;
19084;SDS011;9675;51.538;6.728;2023-04-15T14:47:40;1.87;;;0.80;;
19084;SDS011;9675;51.538;6.728;2023-04-15T14:50:07;1.43;;;0.87;;
19084;SDS011;9675;51.538;6.728;2023-04-15T14:52:35;2.17;;;1.27;;
19084;SDS011;9675;51.538;6.728;2023-04-15T14:55:04;2.97;;;0.87;;
19084;SDS011;9675;51.538;6.728;2023-04-15T14:57:32;8.00;;;1.03;;
19084;SDS011;9675;51.538;6.728;2023-04-15T15:00:00;1.47;;;0.40;;
19084;SDS011;9675;51.538;6.728;2023-04-15T15:02:29;2.10;;;0.83;;
19084;SDS011;9675;51.538;6.728;2023-04-15T15:04:56;3.00;;;0.77;;
19084;SDS011;9675;51.538;6.728;2023-04-15T15:07:24;1.43;;;0.60;;
19084;SDS011;9675;51.538;6.728;2023-04-15T15:09:51;0.50;;;0.50;;
19084;SDS011;9675;51.538;6.728;2023-04-15T15:12:18;1.20;;;0.80;;